Time;durP1;ratioP1;P1;durP2;ratioP2;P2;SDS_P1;SDS_P2;PMS_P1;PMS_P2;Temp;Humidity;BMP_temperature;BMP_pressure;BME280_temperature;BME280_humidity;BME280_pressure;Samples;Min_cycle;Max_cycle;Signal;HPM_P1;HPM_P2
2023/01/08 00:02:48;;;;;;;15.37;12.43;;;4.30;99.90;;;;;;6285742;28;20463;-61
2023/01/08 00:05:52;;;;;;;14.77;12.70;;;4.30;99.90;;;;;;6276867;28;20494;-61
2023/01/08 00:08:55;;;;;;;16.50;12.10;;;4.30;99.90;;;;;;6275848;28;20476;-61
2023/01/08 00:11:58;;;;;;;13.17;11.83;;;4.20;99.90;;;;;;6276199;28;20474;-62
2023/01/08 00:15:02;;;;;;;15.37;11.47;;;4.20;99.90;;;;;;6275929;28;20466;-61
2023/01/08 00:18:06;;;;;;;16.47;13.63;;;4.20;99.90;;;;;;6275777;28;20532;-62
2023/01/08 00:21:09;;;;;;;18.40;12.27;;;4.10;99.90;;;;;;6275827;28;20470;-61
2023/01/08 00:24:12;;;;;;;16.13;12.17;;;4.20;99.90;;;;;;6275705;28;20489;-61
2023/01/08 00:27:15;;;;;;;20.43;13.40;;;4.10;99.90;;;;;;6287483;28;20968;-61
2023/01/08 00:30:20;;;;;;;15.53;13.27;;;4.10;99.90;;;;;;6300452;28;20480;-61
2023/01/08 00:33:23;;;;;;;20.33;13.27;;;4.10;99.90;;;;;;6300524;28;20480;-61
2023/01/08 00:36:26;;;;;;;15.57;11.97;;;4.10;99.90;;;;;;6300399;28;20469;-62
2023/01/08 00:39:29;;;;;;;14.43;11.70;;;4.00;99.90;;;;;;6300138;28;20469;-62
2023/01/08 00:42:33;;;;;;;13.53;12.00;;;4.00;99.90;;;;;;6300383;28;20465;-62
2023/01/08 00:45:37;;;;;;;15.17;13.67;;;4.00;99.90;;;;;;6294844;28;20970;-62
2023/01/08 00:48:40;;;;;;;13.57;12.23;;;3.90;99.90;;;;;;6275092;28;20474;-62
2023/01/08 00:51:44;;;;;;;14.43;12.37;;;3.90;99.90;;;;;;6275167;28;20480;-62
2023/01/08 00:54:47;;;;;;;14.13;11.27;;;3.90;99.90;;;;;;6275389;28;20449;-62
2023/01/08 00:57:50;;;;;;;17.57;12.70;;;3.90;99.90;;;;;;6274617;28;20466;-62
2023/01/08 01:00:54;;;;;;;17.27;11.93;;;3.90;99.90;;;;;;6274696;28;20453;-62
2023/01/08 01:03:58;;;;;;;16.50;10.70;;;3.90;99.90;;;;;;6274431;28;20447;-62
2023/01/08 01:07:01;;;;;;;14.73;11.10;;;3.90;99.90;;;;;;6275098;28;20608;-62
2023/01/08 01:10:05;;;;;;;12.53;11.23;;;3.90;99.90;;;;;;6275122;28;20467;-62
2023/01/08 01:13:08;;;;;;;14.30;12.00;;;3.90;99.90;;;;;;6274818;28;20480;-62
2023/01/08 01:16:13;;;;;;;13.60;12.20;;;3.80;99.90;;;;;;6274766;28;20469;-62
2023/01/08 01:19:17;;;;;;;14.23;12.37;;;3.70;99.90;;;;;;6274739;28;20864;-62
2023/01/08 01:22:20;;;;;;;14.53;12.23;;;3.70;99.90;;;;;;6274753;28;20981;-62
2023/01/08 01:25:24;;;;;;;15.17;12.10;;;3.70;99.90;;;;;;6280847;28;20466;-62
2023/01/08 01:28:27;;;;;;;15.60;11.80;;;3.70;99.90;;;;;;6294036;28;20477;-62
2023/01/08 01:31:32;;;;;;;16.90;13.30;;;3.60;99.90;;;;;;6299121;28;20473;-62
2023/01/08 01:34:35;;;;;;;15.33;12.03;;;3.60;99.90;;;;;;6299302;28;20492;-62
2023/01/08 01:37:38;;;;;;;16.47;11.97;;;3.50;99.90;;;;;;6304134;28;20488;-62
2023/01/08 01:40:42;;;;;;;15.30;12.97;;;3.50;99.90;;;;;;6307519;28;20472;-62
2023/01/08 01:43:45;;;;;;;15.17;12.43;;;3.50;99.90;;;;;;6307470;28;20468;-62
2023/01/08 01:46:50;;;;;;;15.77;12.13;;;3.50;99.90;;;;;;6292832;28;20485;-62
2023/01/08 01:49:58;;;;;;;17.30;12.20;;;3.50;99.90;;;;;;6282371;28;20489;-62
2023/01/08 01:53:05;;;;;;;14.93;12.47;;;3.50;99.90;;;;;;6282667;28;20484;-62
2023/01/08 01:56:09;;;;;;;15.00;12.60;;;3.50;99.90;;;;;;6282370;28;20462;-62
2023/01/08 01:59:13;;;;;;;14.07;11.70;;;3.50;99.90;;;;;;6282292;28;20485;-62
2023/01/08 02:02:18;;;;;;;15.60;11.67;;;3.40;99.90;;;;;;6283030;28;20466;-62
2023/01/08 02:05:32;;;;;;;13.63;11.17;;;3.40;99.90;;;;;;6282619;28;20482;-62
2023/01/08 02:08:42;;;;;;;12.43;11.17;;;3.40;99.90;;;;;;6285737;28;20489;-62
2023/01/08 02:12:15;;;;;;;12.27;10.50;;;3.30;99.90;;;;;;6303639;28;20462;-62
2023/01/08 02:15:20;;;;;;;15.53;12.60;;;3.30;99.90;;;;;;6282562;28;20461;-62
2023/01/08 02:18:31;;;;;;;14.47;11.50;;;3.30;99.90;;;;;;6282323;28;20489;-62
2023/01/08 02:21:49;;;;;;;13.53;10.80;;;3.30;99.90;;;;;;6282003;28;20482;-63
2023/01/08 02:24:56;;;;;;;16.40;12.63;;;3.30;99.90;;;;;;6284391;28;20770;-62
2023/01/08 02:28:02;;;;;;;15.03;11.60;;;3.30;99.90;;;;;;6299462;28;20470;-63
2023/01/08 02:31:06;;;;;;;12.53;11.23;;;3.20;99.90;;;;;;6264522;28;20463;-62
2023/01/08 02:34:11;;;;;;;11.57;10.17;;;3.30;99.90;;;;;;6271153;28;20926;-63
2023/01/08 02:37:14;;;;;;;14.70;11.60;;;3.20;99.90;;;;;;6256938;28;20467;-63
2023/01/08 02:40:24;;;;;;;13.77;12.37;;;3.30;99.90;;;;;;6266531;28;20480;-63
2023/01/08 02:43:36;;;;;;;14.90;10.90;;;3.20;99.90;;;;;;6274660;28;20459;-63
2023/01/08 02:46:41;;;;;;;13.03;11.73;;;3.20;99.90;;;;;;6281747;28;20485;-63
2023/01/08 02:49:50;;;;;;;13.40;10.83;;;3.30;99.90;;;;;;6277029;28;20481;-63
2023/01/08 02:53:01;;;;;;;12.90;11.00;;;3.20;99.90;;;;;;6274242;28;20475;-63
2023/01/08 02:56:08;;;;;;;14.73;10.33;;;3.20;99.90;;;;;;6265166;28;20521;-63
2023/01/08 02:59:14;;;;;;;11.77;9.37;;;3.20;99.90;;;;;;6262215;28;20478;-63
2023/01/08 03:02:17;;;;;;;11.70;9.93;;;3.20;99.90;;;;;;6264421;28;20486;-62
2023/01/08 03:05:26;;;;;;;11.77;9.87;;;3.20;99.90;;;;;;6265098;28;20478;-62
2023/01/08 03:08:30;;;;;;;14.77;10.10;;;3.20;99.90;;;;;;6259699;28;20486;-62
2023/01/08 03:11:39;;;;;;;11.90;10.67;;;3.10;99.90;;;;;;6252509;28;20781;-63
2023/01/08 03:14:47;;;;;;;13.20;10.50;;;3.20;99.90;;;;;;6252566;28;20486;-63
2023/01/08 03:17:53;;;;;;;10.33;8.17;;;3.10;99.90;;;;;;6252372;28;20479;-63
2023/01/08 03:20:57;;;;;;;12.63;11.00;;;3.10;99.90;;;;;;6254647;28;20849;-63
2023/01/08 03:24:01;;;;;;;13.23;11.07;;;3.10;99.90;;;;;;6264728;28;20490;-63
2023/01/08 03:27:06;;;;;;;12.83;10.60;;;3.10;99.90;;;;;;6264115;28;20477;-63
2023/01/08 03:30:12;;;;;;;12.77;11.67;;;3.10;99.90;;;;;;6260695;28;20471;-62
2023/01/08 03:33:17;;;;;;;12.30;10.70;;;3.20;99.90;;;;;;6252385;28;20490;-62
2023/01/08 03:36:24;;;;;;;16.73;12.00;;;3.20;99.90;;;;;;6251973;28;20479;-62
2023/01/08 03:39:31;;;;;;;12.40;10.53;;;3.10;99.90;;;;;;6243116;28;20498;-62
2023/01/08 03:42:34;;;;;;;14.27;10.90;;;3.10;99.90;;;;;;6252138;28;20483;-62
2023/01/08 03:45:44;;;;;;;11.90;10.50;;;3.10;99.90;;;;;;6256814;28;20466;-63
2023/01/08 03:48:49;;;;;;;12.10;9.63;;;3.10;99.90;;;;;;6276477;28;20509;-62
2023/01/08 03:51:52;;;;;;;12.90;10.57;;;3.10;99.90;;;;;;6276268;28;20446;-63
2023/01/08 03:54:55;;;;;;;11.87;10.63;;;3.00;99.90;;;;;;6276186;28;20493;-62
2023/01/08 03:57:59;;;;;;;12.83;10.57;;;3.00;99.90;;;;;;6276600;28;20466;-62
2023/01/08 04:01:03;;;;;;;13.57;10.30;;;3.00;99.90;;;;;;6276331;28;20446;-62
2023/01/08 04:04:07;;;;;;;11.10;9.90;;;3.00;99.90;;;;;;6274991;28;20475;-62
2023/01/08 04:07:11;;;;;;;10.77;9.17;;;2.90;99.90;;;;;;6274589;28;20559;-63
2023/01/08 04:10:14;;;;;;;15.37;9.67;;;2.90;99.90;;;;;;6274552;28;20480;-63
2023/01/08 04:13:17;;;;;;;10.97;9.87;;;2.90;99.90;;;;;;6274380;28;20947;-63
2023/01/08 04:16:21;;;;;;;11.17;9.73;;;2.90;99.90;;;;;;6274720;28;20470;-63
2023/01/08 04:19:25;;;;;;;12.90;11.27;;;2.90;99.90;;;;;;6295598;28;20496;-62
2023/01/08 04:22:28;;;;;;;11.83;10.17;;;2.80;99.90;;;;;;6288315;28;20494;-62
2023/01/08 04:25:31;;;;;;;11.40;9.53;;;2.80;99.90;;;;;;6283268;28;20472;-62
2023/01/08 04:28:34;;;;;;;11.97;10.53;;;2.80;99.90;;;;;;6300260;28;20477;-62
2023/01/08 04:31:39;;;;;;;12.13;10.70;;;2.80;99.90;;;;;;6300383;28;20484;-62
2023/01/08 04:34:42;;;;;;;13.80;12.10;;;2.70;99.90;;;;;;6300255;28;20785;-62
2023/01/08 04:37:45;;;;;;;14.47;12.80;;;2.60;99.90;;;;;;6300220;28;20472;-62
2023/01/08 04:40:48;;;;;;;14.40;12.90;;;2.50;99.90;;;;;;6290525;28;20479;-63
2023/01/08 04:43:51;;;;;;;15.67;12.90;;;2.40;99.90;;;;;;6300023;28;20806;-63
2023/01/08 04:46:56;;;;;;;15.73;14.03;;;2.30;99.90;;;;;;6284265;28;20522;-62
2023/01/08 04:49:59;;;;;;;20.53;16.00;;;2.10;99.90;;;;;;6274531;28;20947;-62
2023/01/08 04:53:02;;;;;;;20.07;13.97;;;2.10;99.90;;;;;;6274295;28;20478;-62
2023/01/08 04:56:07;;;;;;;16.53;14.00;;;2.00;99.90;;;;;;6275021;28;20481;-62
2023/01/08 04:59:10;;;;;;;14.30;12.70;;;2.00;99.90;;;;;;6275079;28;20497;-62
2023/01/08 05:02:15;;;;;;;14.60;13.10;;;2.00;99.90;;;;;;6275069;28;20470;-62
2023/01/08 05:05:18;;;;;;;16.33;12.67;;;2.00;99.90;;;;;;6275082;28;20790;-62
2023/01/08 05:08:21;;;;;;;16.90;12.53;;;2.00;99.90;;;;;;6275648;28;20478;-62
2023/01/08 05:11:25;;;;;;;14.63;13.00;;;1.80;99.90;;;;;;6274506;28;20470;-62
2023/01/08 05:14:28;;;;;;;15.00;12.23;;;1.80;99.90;;;;;;6274780;28;20942;-62
2023/01/08 05:17:33;;;;;;;16.60;12.80;;;1.80;99.90;;;;;;6274591;28;20488;-62
2023/01/08 05:20:36;;;;;;;15.53;13.30;;;1.80;99.90;;;;;;6274415;28;20478;-63
2023/01/08 05:23:39;;;;;;;15.67;13.90;;;1.90;99.90;;;;;;6274075;28;20482;-62
2023/01/08 05:26:42;;;;;;;16.20;12.73;;;1.90;99.90;;;;;;6291613;28;20473;-62
2023/01/08 05:29:45;;;;;;;15.00;12.37;;;2.00;99.90;;;;;;6299126;28;20481;-62
2023/01/08 05:32:50;;;;;;;14.67;13.13;;;2.00;99.90;;;;;;6299386;28;20479;-62
2023/01/08 05:35:53;;;;;;;14.23;11.80;;;2.10;99.90;;;;;;6299289;28;20477;-62
2023/01/08 05:38:56;;;;;;;14.33;12.60;;;2.10;99.90;;;;;;6299370;28;20530;-62
2023/01/08 05:41:59;;;;;;;16.60;12.93;;;2.10;99.90;;;;;;6299174;28;20470;-62
2023/01/08 05:45:02;;;;;;;15.70;12.13;;;2.20;99.90;;;;;;6294607;28;20477;-62
2023/01/08 05:48:08;;;;;;;13.60;10.87;;;2.20;99.90;;;;;;6284162;28;20482;-62
2023/01/08 05:51:11;;;;;;;13.90;11.70;;;2.30;99.90;;;;;;6274306;28;20790;-62
2023/01/08 05:54:14;;;;;;;12.30;10.80;;;2.30;99.90;;;;;;6274069;28;20484;-62
2023/01/08 05:57:17;;;;;;;16.03;11.90;;;2.20;99.90;;;;;;6274145;28;20478;-63
2023/01/08 06:00:20;;;;;;;13.90;11.40;;;2.20;99.90;;;;;;6274008;28;20766;-62
2023/01/08 06:03:25;;;;;;;16.10;11.73;;;2.20;99.90;;;;;;6273979;28;20481;-62
2023/01/08 06:06:28;;;;;;;15.77;11.57;;;2.20;99.90;;;;;;6273967;28;20608;-62
2023/01/08 06:09:31;;;;;;;16.60;13.43;;;2.30;99.90;;;;;;6273784;28;20509;-62
2023/01/08 06:12:34;;;;;;;16.90;11.70;;;2.20;99.90;;;;;;6274379;28;20481;-62
2023/01/08 06:15:38;;;;;;;15.70;12.63;;;2.20;99.90;;;;;;6273735;28;20496;-62
2023/01/08 06:18:43;;;;;;;16.57;11.57;;;2.20;99.90;;;;;;6273955;28;20474;-62
2023/01/08 06:21:46;;;;;;;11.23;10.10;;;2.20;99.90;;;;;;6273559;28;20461;-62
2023/01/08 06:24:49;;;;;;;12.40;9.30;;;2.20;99.90;;;;;;6278759;28;20438;-62
2023/01/08 06:27:53;;;;;;;12.73;10.23;;;2.30;99.90;;;;;;6321284;28;20476;-62
2023/01/08 06:30:57;;;;;;;13.67;10.80;;;2.20;99.90;;;;;;6321452;28;20445;-62
2023/01/08 06:34:02;;;;;;;12.43;10.00;;;2.20;99.90;;;;;;6303579;28;20469;-62
2023/01/08 06:37:05;;;;;;;12.00;10.63;;;2.30;99.90;;;;;;6303112;28;20453;-62
2023/01/08 06:40:10;;;;;;;12.23;10.23;;;2.20;99.90;;;;;;6303275;28;20784;-62
2023/01/08 06:43:13;;;;;;;14.13;11.20;;;2.20;99.90;;;;;;6303269;28;20527;-62
2023/01/08 06:46:16;;;;;;;11.40;9.87;;;2.10;99.90;;;;;;6303658;28;20483;-62
2023/01/08 06:49:21;;;;;;;11.00;9.33;;;2.20;99.90;;;;;;6252896;28;20979;-63
2023/01/08 06:52:24;;;;;;;12.77;11.50;;;2.20;99.90;;;;;;6253325;28;20475;-62
2023/01/08 06:55:28;;;;;;;11.67;9.57;;;2.20;99.90;;;;;;6253158;28;20471;-62
2023/01/08 06:58:32;;;;;;;12.40;9.70;;;2.30;99.90;;;;;;6253367;28;20483;-62
2023/01/08 07:01:35;;;;;;;10.10;9.10;;;2.30;99.90;;;;;;6253378;28;20482;-62
2023/01/08 07:04:39;;;;;;;12.57;10.20;;;2.30;99.90;;;;;;6253085;28;20471;-62
2023/01/08 07:07:43;;;;;;;13.17;10.63;;;2.40;99.90;;;;;;6252794;28;20485;-63
2023/01/08 07:10:46;;;;;;;12.00;10.23;;;2.40;99.90;;;;;;6252836;28;20474;-63
2023/01/08 07:13:49;;;;;;;14.80;10.00;;;2.50;99.90;;;;;;6252893;28;20479;-62
2023/01/08 07:16:52;;;;;;;11.90;10.33;;;2.50;99.90;;;;;;6252947;28;20479;-62
2023/01/08 07:19:57;;;;;;;13.40;11.43;;;2.60;99.90;;;;;;6252894;28;20498;-62
2023/01/08 07:23:02;;;;;;;15.80;11.70;;;2.60;99.90;;;;;;6252599;28;20947;-62
2023/01/08 07:26:07;;;;;;;18.80;12.73;;;2.70;99.90;;;;;;6276353;28;20796;-62
2023/01/08 07:29:10;;;;;;;12.77;10.70;;;2.60;99.90;;;;;;6302315;28;20976;-62
2023/01/08 07:32:13;;;;;;;15.13;12.07;;;2.70;99.90;;;;;;6302187;28;20465;-62
2023/01/08 07:35:18;;;;;;;14.57;11.57;;;2.80;99.90;;;;;;6301420;28;20489;-62
2023/01/08 07:38:21;;;;;;;21.47;13.23;;;2.90;99.90;;;;;;6302080;28;20477;-62
2023/01/08 07:41:24;;;;;;;13.93;11.63;;;3.00;99.90;;;;;;6301963;28;20478;-62
2023/01/08 07:44:27;;;;;;;16.97;13.17;;;3.10;99.90;;;;;;6301669;28;20473;-62
2023/01/08 07:47:31;;;;;;;15.23;12.57;;;3.20;99.90;;;;;;6291244;28;20474;-62
2023/01/08 07:50:36;;;;;;;13.07;11.17;;;3.30;99.90;;;;;;6277479;28;20481;-62
2023/01/08 07:53:42;;;;;;;14.00;11.90;;;3.50;99.90;;;;;;6267698;28;20941;-63
2023/01/08 07:56:46;;;;;;;17.43;13.10;;;3.60;99.90;;;;;;6276754;28;20481;-63
2023/01/08 07:59:49;;;;;;;14.77;13.27;;;3.70;99.90;;;;;;6276487;28;20481;-63
2023/01/08 08:02:52;;;;;;;15.00;13.47;;;3.80;99.90;;;;;;6276586;28;20800;-62
2023/01/08 08:05:57;;;;;;;13.93;11.70;;;3.80;99.90;;;;;;6276353;28;20838;-63
2023/01/08 08:09:00;;;;;;;13.70;12.17;;;3.90;99.90;;;;;;6276335;28;20483;-63
2023/01/08 08:12:03;;;;;;;15.30;11.53;;;3.90;99.90;;;;;;6276378;28;20806;-62
2023/01/08 08:15:08;;;;;;;13.60;11.90;;;4.00;99.90;;;;;;6275968;28;20478;-63
2023/01/08 08:18:11;;;;;;;17.10;12.60;;;4.10;99.90;;;;;;6276008;28;20488;-62
2023/01/08 08:21:16;;;;;;;12.27;10.97;;;4.10;99.90;;;;;;6275942;28;20497;-63
2023/01/08 08:24:19;;;;;;;13.20;11.80;;;4.20;99.90;;;;;;6276742;28;20466;-62
2023/01/08 08:27:23;;;;;;;12.83;9.97;;;4.30;99.90;;;;;;6298337;28;20573;-63
2023/01/08 08:30:28;;;;;;;12.57;10.47;;;4.30;99.90;;;;;;6300925;28;20779;-62
2023/01/08 08:33:31;;;;;;;10.67;9.50;;;4.40;99.90;;;;;;6300487;28;20502;-62
2023/01/08 08:36:35;;;;;;;12.73;11.13;;;4.40;99.90;;;;;;6300206;28;20488;-62
2023/01/08 08:39:39;;;;;;;16.83;12.37;;;4.50;99.90;;;;;;6300196;28;20477;-65
2023/01/08 08:42:42;;;;;;;15.47;13.03;;;4.60;99.90;;;;;;6300797;28;20987;-63
2023/01/08 08:45:45;;;;;;;15.07;13.57;;;4.60;99.90;;;;;;6279923;28;20966;-66
2023/01/08 08:48:48;;;;;;;17.87;13.90;;;4.70;99.90;;;;;;6286861;28;20553;-62
2023/01/08 08:51:53;;;;;;;15.40;11.63;;;4.70;99.90;;;;;;6271510;28;20438;-62
2023/01/08 08:54:56;;;;;;;13.50;12.00;;;4.70;99.90;;;;;;6259086;28;20504;-62
2023/01/08 08:58:05;;;;;;;16.27;12.20;;;4.80;99.90;;;;;;6253660;28;20483;-62
2023/01/08 09:01:08;;;;;;;16.40;11.80;;;4.90;99.90;;;;;;6261013;28;20945;-62
2023/01/08 09:04:11;;;;;;;13.80;11.17;;;5.00;99.90;;;;;;6268655;28;20987;-60
2023/01/08 09:07:16;;;;;;;14.63;12.40;;;5.10;99.90;;;;;;6263712;28;20569;-61
2023/01/08 09:10:20;;;;;;;15.40;13.73;;;5.30;99.90;;;;;;6260267;28;20971;-61
2023/01/08 09:13:23;;;;;;;14.13;12.70;;;5.40;99.90;;;;;;6266607;28;20471;-61
2023/01/08 09:16:26;;;;;;;16.13;13.80;;;5.50;99.90;;;;;;6274183;28;20469;-61
2023/01/08 09:19:29;;;;;;;17.00;15.20;;;5.60;99.90;;;;;;6274800;28;20577;-61
2023/01/08 09:22:34;;;;;;;17.23;15.17;;;5.70;99.90;;;;;;6265042;28;20474;-61
2023/01/08 09:25:37;;;;;;;16.33;13.50;;;5.80;99.90;;;;;;6259653;28;20466;-60
2023/01/08 09:28:41;;;;;;;14.10;12.13;;;5.90;99.90;;;;;;6273278;28;20523;-60
2023/01/08 09:31:45;;;;;;;16.73;15.13;;;6.10;99.90;;;;;;6272713;28;20469;-61
2023/01/08 09:34:48;;;;;;;18.63;16.63;;;6.00;99.90;;;;;;6272655;28;20843;-60
2023/01/08 09:37:53;;;;;;;20.47;17.80;;;5.90;99.90;;;;;;6272371;28;20829;-60
2023/01/08 09:41:03;;;;;;;18.30;16.40;;;5.80;99.90;;;;;;6272347;28;20785;-60
2023/01/08 09:44:07;;;;;;;21.70;17.90;;;5.60;99.90;;;;;;6272214;28;20519;-60
2023/01/08 09:47:21;;;;;;;16.87;15.10;;;5.30;99.90;;;;;;6269814;28;20475;-61
2023/01/08 09:50:27;;;;;;;15.77;14.27;;;5.20;99.90;;;;;;6261137;28;20486;-61
2023/01/08 09:53:33;;;;;;;18.03;15.57;;;5.10;99.90;;;;;;6269608;28;20818;-59
2023/01/08 09:56:37;;;;;;;15.87;14.33;;;4.90;99.90;;;;;;6263367;28;20483;-61
2023/01/08 09:59:41;;;;;;;14.40;12.30;;;4.50;99.90;;;;;;6258003;28;20493;-60
2023/01/08 10:02:44;;;;;;;16.10;14.10;;;4.60;99.90;;;;;;6278532;28;20477;-60
2023/01/08 10:05:48;;;;;;;16.70;14.83;;;4.60;99.90;;;;;;6277768;28;20480;-60
2023/01/08 10:08:53;;;;;;;15.23;13.80;;;4.70;99.90;;;;;;6276444;28;20477;-60
2023/01/08 10:12:00;;;;;;;16.50;14.33;;;4.80;99.90;;;;;;6256430;28;20483;-60
2023/01/08 10:15:06;;;;;;;15.33;13.87;;;4.90;99.90;;;;;;6252447;28;20490;-61
2023/01/08 10:18:13;;;;;;;18.40;14.50;;;5.00;99.90;;;;;;6252655;28;20467;-61
2023/01/08 10:21:17;;;;;;;17.87;16.00;;;5.20;99.90;;;;;;6252700;28;20489;-59
2023/01/08 10:24:34;;;;;;;15.90;14.20;;;5.30;99.90;;;;;;6252685;28;20487;-60
2023/01/08 10:27:46;;;;;;;14.93;13.43;;;5.50;99.90;;;;;;6281255;28;20780;-59
2023/01/08 10:30:51;;;;;;;14.33;13.03;;;5.60;99.90;;;;;;6277079;28;20819;-59
2023/01/08 10:33:54;;;;;;;14.13;11.77;;;5.60;99.90;;;;;;6274243;28;20438;-60
2023/01/08 10:36:57;;;;;;;15.97;11.20;;;5.70;99.90;;;;;;6272586;28;20512;-60
2023/01/08 10:40:07;;;;;;;13.33;11.23;;;5.80;99.90;;;;;;6276882;28;20796;-59
2023/01/08 10:43:15;;;;;;;13.37;11.10;;;5.90;99.90;;;;;;6277214;28;20466;-61
2023/01/08 10:46:23;;;;;;;12.83;11.50;;;6.00;99.90;;;;;;6276859;28;20473;-59
2023/01/08 10:49:32;;;;;;;12.30;11.13;;;6.10;99.90;;;;;;6254080;28;20471;-59
2023/01/08 10:52:35;;;;;;;14.33;10.80;;;6.20;99.90;;;;;;6252710;28;20472;-58
2023/01/08 10:55:40;;;;;;;10.90;9.40;;;6.30;99.90;;;;;;6253338;28;20474;-59
2023/01/08 10:58:43;;;;;;;11.07;9.93;;;6.40;99.90;;;;;;6276675;28;20557;-59
2023/01/08 11:01:47;;;;;;;12.50;9.50;;;6.60;99.90;;;;;;6256302;28;20466;-59
2023/01/08 11:04:52;;;;;;;13.90;11.43;;;6.70;99.90;;;;;;6251027;28;20471;-59
2023/01/08 11:07:57;;;;;;;10.60;9.50;;;7.00;99.90;;;;;;6251280;28;20478;-60
2023/01/08 11:11:02;;;;;;;11.50;9.80;;;7.30;99.90;;;;;;6250724;28;20494;-59
2023/01/08 11:14:16;;;;;;;10.87;9.77;;;7.60;99.90;;;;;;6265148;28;20941;-59
2023/01/08 11:17:20;;;;;;;9.70;8.77;;;7.90;99.90;;;;;;6275613;28;20755;-61
2023/01/08 11:20:28;;;;;;;10.00;8.97;;;8.30;99.90;;;;;;6275789;28;20462;-59
2023/01/08 11:23:31;;;;;;;11.97;8.30;;;8.90;99.90;;;;;;6275639;28;20478;-58
2023/01/08 11:26:38;;;;;;;8.53;7.73;;;9.80;99.80;;;;;;6286621;28;20485;-58
2023/01/08 11:29:45;;;;;;;10.40;9.40;;;10.20;97.80;;;;;;6275158;28;20496;-58
2023/01/08 11:32:53;;;;;;;10.10;9.20;;;10.20;96.70;;;;;;6275593;28;20466;-58
2023/01/08 11:36:04;;;;;;;11.43;9.47;;;9.50;98.00;;;;;;6275574;28;20484;-58
2023/01/08 11:39:09;;;;;;;12.13;8.53;;;9.40;98.60;;;;;;6274883;28;20663;-58
2023/01/08 11:42:33;;;;;;;9.80;8.03;;;10.40;98.60;;;;;;6274667;28;20989;-58
2023/01/08 11:45:47;;;;;;;8.00;7.00;;;13.50;96.20;;;;;;6275025;28;20470;-59
2023/01/08 11:49:13;;;;;;;8.60;7.77;;;17.30;85.80;;;;;;6274605;28;20532;-60
2023/01/08 11:52:33;;;;;;;8.77;7.50;;;19.50;69.80;;;;;;6275206;28;20474;-59
2023/01/08 11:55:48;;;;;;;9.77;8.93;;;20.30;57.20;;;;;;6274712;28;20565;-59
2023/01/08 11:59:06;;;;;;;8.60;7.90;;;19.90;55.10;;;;;;6274542;28;20470;-59
2023/01/08 12:02:20;;;;;;;8.37;7.67;;;20.00;54.90;;;;;;6274356;28;20227;-60
2023/01/08 12:05:30;;;;;;;8.43;7.60;;;21.60;50.30;;;;;;6269618;28;20235;-59
2023/01/08 12:08:41;;;;;;;8.30;7.50;;;21.90;47.20;;;;;;6253602;28;20229;-59
2023/01/08 12:11:51;;;;;;;9.93;7.80;;;20.90;46.70;;;;;;6260273;28;20236;-59
2023/01/08 12:15:09;;;;;;;9.77;8.77;;;19.50;47.80;;;;;;6255013;28;20228;-59
2023/01/08 12:18:26;;;;;;;7.60;7.00;;;17.70;50.80;;;;;;6249155;28;20486;-59
2023/01/08 12:21:32;;;;;;;8.57;7.60;;;16.60;53.30;;;;;;6254756;28;20466;-59
2023/01/08 12:24:52;;;;;;;10.30;8.07;;;15.80;55.50;;;;;;6262727;28;20489;-59
2023/01/08 12:28:15;;;;;;;10.43;8.30;;;15.00;57.20;;;;;;6269927;28;20478;-59
2023/01/08 12:31:36;;;;;;;8.40;7.53;;;14.40;59.20;;;;;;6274031;28;20482;-61
2023/01/08 12:34:49;;;;;;;9.70;7.60;;;13.80;61.30;;;;;;6273880;28;20544;-59
2023/01/08 12:37:57;;;;;;;9.03;8.07;;;13.00;64.50;;;;;;6273467;28;20805;-58
2023/01/08 12:41:04;;;;;;;10.03;8.03;;;12.60;66.90;;;;;;6273708;28;20470;-62
2023/01/08 12:44:11;;;;;;;8.70;7.90;;;12.30;68.50;;;;;;6273515;28;20794;-62
2023/01/08 12:47:20;;;;;;;9.27;8.37;;;12.00;70.80;;;;;;6273721;28;20458;-63
2023/01/08 12:50:46;;;;;;;9.13;8.27;;;11.80;72.80;;;;;;6273361;28;20493;-62
2023/01/08 12:53:58;;;;;;;9.93;8.77;;;11.70;74.60;;;;;;6273944;28;20482;-63
2023/01/08 12:57:08;;;;;;;9.07;7.60;;;11.40;75.70;;;;;;6273019;28;20994;-63
2023/01/08 13:00:19;;;;;;;9.47;8.47;;;10.90;78.30;;;;;;6273302;28;20466;-68
2023/01/08 13:03:27;;;;;;;12.10;8.60;;;10.40;81.80;;;;;;6273386;28;20474;-62
2023/01/08 13:06:31;;;;;;;10.97;9.23;;;10.10;84.30;;;;;;6273657;28;20485;-61
2023/01/08 13:09:34;;;;;;;12.27;9.03;;;9.70;87.70;;;;;;6273058;28;20477;-61
2023/01/08 13:12:42;;;;;;;10.93;8.33;;;9.60;90.10;;;;;;6264294;28;20992;-62
2023/01/08 13:15:45;;;;;;;8.93;8.00;;;9.50;90.50;;;;;;6273005;28;20476;-61
2023/01/08 13:18:55;;;;;;;12.20;9.30;;;9.50;91.30;;;;;;6272347;28;20482;-61
2023/01/08 13:22:00;;;;;;;8.97;7.90;;;9.40;91.90;;;;;;6272892;28;20871;-61
2023/01/08 13:25:31;;;;;;;13.33;11.77;;;9.30;92.40;;;;;;6276463;28;20436;-62
2023/01/08 13:28:43;;;;;;;10.30;8.43;;;9.30;92.80;;;;;;6276375;28;20478;-61
2023/01/08 13:31:46;;;;;;;11.33;10.07;;;9.30;93.40;;;;;;6272855;28;20767;-61
2023/01/08 13:35:02;;;;;;;9.80;8.50;;;9.20;93.60;;;;;;6272491;28;20535;-62
2023/01/08 13:38:13;;;;;;;12.27;8.80;;;9.10;94.00;;;;;;6272534;28;20639;-62
2023/01/08 13:41:26;;;;;;;12.43;9.57;;;9.10;94.30;;;;;;6272611;28;20470;-61
2023/01/08 13:44:33;;;;;;;10.77;9.60;;;9.00;94.70;;;;;;6277284;28;20473;-60
2023/01/08 13:47:42;;;;;;;14.23;9.30;;;9.00;95.00;;;;;;6291581;28;20800;-60
2023/01/08 13:50:47;;;;;;;14.97;10.03;;;8.90;95.20;;;;;;6273192;28;20470;-61
2023/01/08 13:53:51;;;;;;;9.87;8.87;;;8.90;95.60;;;;;;6272686;28;20480;-61
2023/01/08 13:57:02;;;;;;;14.53;11.20;;;8.90;95.70;;;;;;6272920;28;20481;-62
2023/01/08 14:00:08;;;;;;;12.13;10.83;;;8.80;95.90;;;;;;6272421;28;20473;-61
2023/01/08 14:03:22;;;;;;;18.07;10.30;;;8.80;96.10;;;;;;6273445;28;20474;-61
2023/01/08 14:06:30;;;;;;;16.17;12.73;;;8.80;96.50;;;;;;6272792;28;20474;-61
2023/01/08 14:09:33;;;;;;;23.30;13.57;;;8.70;96.60;;;;;;6272467;28;20466;-62
2023/01/08 14:12:36;;;;;;;14.07;11.57;;;8.70;97.00;;;;;;6272623;28;20482;-61
2023/01/08 14:15:40;;;;;;;16.43;12.33;;;8.60;97.10;;;;;;6267916;28;20478;-60
2023/01/08 14:18:44;;;;;;;15.00;11.93;;;8.60;97.40;;;;;;6272116;28;20481;-61
2023/01/08 14:21:50;;;;;;;18.17;12.63;;;8.60;97.70;;;;;;6272435;28;20812;-61
2023/01/08 14:24:56;;;;;;;13.23;11.47;;;8.60;97.70;;;;;;6274806;28;20442;-62
2023/01/08 14:28:01;;;;;;;12.13;10.90;;;8.50;98.00;;;;;;6281177;28;20458;-61
2023/01/08 14:31:05;;;;;;;20.20;13.23;;;8.50;98.20;;;;;;6273341;28;20422;-60
2023/01/08 14:34:10;;;;;;;21.27;12.27;;;8.50;98.30;;;;;;6272778;28;20474;-60
2023/01/08 14:37:16;;;;;;;15.10;11.80;;;8.50;98.60;;;;;;6272639;28;20473;-61
2023/01/08 14:40:29;;;;;;;14.80;10.70;;;8.50;98.70;;;;;;6272175;28;20812;-61
2023/01/08 14:43:35;;;;;;;14.10;10.73;;;8.50;99.00;;;;;;6272329;28;20489;-62
2023/01/08 14:46:38;;;;;;;15.00;10.70;;;8.40;99.00;;;;;;6276346;28;20533;-61
2023/01/08 14:49:43;;;;;;;14.00;11.20;;;8.40;99.20;;;;;;6276131;28;20482;-61
2023/01/08 14:52:49;;;;;;;17.60;12.90;;;8.40;99.50;;;;;;6276314;28;20807;-61
2023/01/08 14:55:56;;;;;;;18.70;13.50;;;8.40;99.70;;;;;;6276683;28;20481;-61
2023/01/08 14:59:00;;;;;;;13.47;12.07;;;8.30;99.80;;;;;;6276021;28;20470;-61
2023/01/08 15:02:05;;;;;;;12.47;10.53;;;8.30;99.90;;;;;;6276425;28;20898;-61
2023/01/08 15:05:19;;;;;;;14.27;11.00;;;8.30;99.90;;;;;;6261165;28;20544;-59
2023/01/08 15:08:26;;;;;;;15.07;11.63;;;8.30;99.90;;;;;;6267122;28;20466;-59
2023/01/08 15:11:31;;;;;;;14.00;10.40;;;8.30;99.90;;;;;;6260945;28;20467;-59
2023/01/08 15:14:35;;;;;;;13.70;11.00;;;8.20;99.90;;;;;;6276140;28;20481;-61
2023/01/08 15:17:40;;;;;;;17.40;11.27;;;8.20;99.90;;;;;;6266742;28;20946;-62
2023/01/08 15:20:45;;;;;;;13.20;10.07;;;8.10;99.90;;;;;;6269916;28;20467;-61
2023/01/08 15:23:53;;;;;;;12.13;10.60;;;7.90;99.90;;;;;;6250708;28;20966;-62
2023/01/08 15:26:57;;;;;;;11.13;9.93;;;8.00;99.90;;;;;;6273867;28;20467;-61
2023/01/08 15:30:02;;;;;;;16.03;12.00;;;8.00;99.90;;;;;;6275654;28;20474;-62
2023/01/08 15:33:08;;;;;;;18.80;14.60;;;7.90;99.90;;;;;;6265782;28;20553;-59
2023/01/08 15:36:11;;;;;;;15.17;12.30;;;7.90;99.90;;;;;;6253245;28;20947;-59
2023/01/08 15:39:16;;;;;;;11.57;10.33;;;8.00;99.90;;;;;;6255567;28;20490;-61
2023/01/08 15:45:43;;;;;;;14.07;12.50;;;8.00;99.90;;;;;;6250758;28;21105;-61
2023/01/08 15:48:47;;;;;;;14.77;13.13;;;8.00;99.90;;;;;;6270579;28;20470;-61
2023/01/08 15:51:52;;;;;;;16.80;13.07;;;8.00;99.90;;;;;;6289653;28;20500;-62
2023/01/08 15:54:57;;;;;;;15.30;11.27;;;8.00;99.90;;;;;;6278858;28;20922;-61
2023/01/08 15:58:00;;;;;;;14.63;11.70;;;8.00;99.90;;;;;;6275194;28;20465;-60
2023/01/08 16:01:04;;;;;;;18.20;12.63;;;8.00;99.90;;;;;;6275438;28;20470;-61